sensor_id;sensor_type;location;lat;lon;timestamp;P1;durP1;ratioP1;P2;durP2;ratioP2
23684;SDS011;12020;51.384;6.908;2022-12-24T00:00:32;17.52;;;4.82;;
23684;SDS011;12020;51.384;6.908;2022-12-24T00:02:59;15.25;;;4.20;;
23684;SDS011;12020;51.384;6.908;2022-12-24T00:05:25;15.07;;;3.95;;
23684;SDS011;12020;51.384;6.908;2022-12-24T00:07:51;17.03;;;3.83;;
23684;SDS011;12020;51.384;6.908;2022-12-24T00:10:17;19.17;;;4.38;;
23684;SDS011;12020;51.384;6.908;2022-12-24T00:12:43;18.37;;;4.43;;
23684;SDS011;12020;51.384;6.908;2022-12-24T00:15:11;15.95;;;4.28;;
23684;SDS011;12020;51.384;6.908;2022-12-24T00:17:43;16.52;;;4.22;;
23684;SDS011;12020;51.384;6.908;2022-12-24T00:20:08;16.08;;;4.65;;
23684;SDS011;12020;51.384;6.908;2022-12-24T00:22:34;17.88;;;4.68;;
23684;SDS011;12020;51.384;6.908;2022-12-24T00:25:03;16.30;;;4.83;;
23684;SDS011;12020;51.384;6.908;2022-12-24T00:27:29;15.65;;;3.85;;
23684;SDS011;12020;51.384;6.908;2022-12-24T00:29:56;19.63;;;4.28;;
23684;SDS011;12020;51.384;6.908;2022-12-24T00:32:21;17.60;;;4.88;;
23684;SDS011;12020;51.384;6.908;2022-12-24T00:34:48;19.25;;;4.38;;
23684;SDS011;12020;51.384;6.908;2022-12-24T00:37:17;15.43;;;4.00;;
23684;SDS011;12020;51.384;6.908;2022-12-24T00:39:43;19.77;;;4.30;;
23684;SDS011;12020;51.384;6.908;2022-12-24T00:42:09;20.50;;;4.45;;
23684;SDS011;12020;51.384;6.908;2022-12-24T00:44:37;18.30;;;4.57;;
23684;SDS011;12020;51.384;6.908;2022-12-24T00:47:03;17.05;;;4.50;;
23684;SDS011;12020;51.384;6.908;2022-12-24T00:49:35;18.15;;;5.10;;
23684;SDS011;12020;51.384;6.908;2022-12-24T00:52:02;21.30;;;4.10;;
23684;SDS011;12020;51.384;6.908;2022-12-24T00:54:28;19.08;;;4.35;;
23684;SDS011;12020;51.384;6.908;2022-12-24T00:56:54;23.45;;;4.50;;
23684;SDS011;12020;51.384;6.908;2022-12-24T00:59:19;18.98;;;4.50;;
23684;SDS011;12020;51.384;6.908;2022-12-24T01:01:46;19.75;;;4.72;;
23684;SDS011;12020;51.384;6.908;2022-12-24T01:04:11;21.65;;;5.18;;
23684;SDS011;12020;51.384;6.908;2022-12-24T01:06:56;20.05;;;4.38;;
23684;SDS011;12020;51.384;6.908;2022-12-24T01:09:21;21.92;;;4.50;;
23684;SDS011;12020;51.384;6.908;2022-12-24T01:11:48;18.67;;;4.05;;
23684;SDS011;12020;51.384;6.908;2022-12-24T01:14:14;19.73;;;4.63;;
23684;SDS011;12020;51.384;6.908;2022-12-24T01:16:42;18.00;;;4.60;;
23684;SDS011;12020;51.384;6.908;2022-12-24T01:19:09;19.98;;;4.72;;
23684;SDS011;12020;51.384;6.908;2022-12-24T01:21:35;23.15;;;4.82;;
23684;SDS011;12020;51.384;6.908;2022-12-24T01:24:00;23.70;;;4.50;;
23684;SDS011;12020;51.384;6.908;2022-12-24T01:26:26;23.67;;;4.13;;
23684;SDS011;12020;51.384;6.908;2022-12-24T01:28:52;19.77;;;4.25;;
23684;SDS011;12020;51.384;6.908;2022-12-24T01:31:18;20.73;;;5.40;;
23684;SDS011;12020;51.384;6.908;2022-12-24T01:33:45;18.13;;;4.95;;
23684;SDS011;12020;51.384;6.908;2022-12-24T01:36:14;20.38;;;4.95;;
23684;SDS011;12020;51.384;6.908;2022-12-24T01:38:42;19.67;;;4.95;;
23684;SDS011;12020;51.384;6.908;2022-12-24T01:41:19;21.02;;;5.07;;
23684;SDS011;12020;51.384;6.908;2022-12-24T01:49:50;22.10;;;4.77;;
23684;SDS011;12020;51.384;6.908;2022-12-24T01:52:23;24.88;;;5.88;;
23684;SDS011;12020;51.384;6.908;2022-12-24T01:54:55;17.23;;;4.32;;
23684;SDS011;12020;51.384;6.908;2022-12-24T01:57:50;20.08;;;5.25;;
23684;SDS011;12020;51.384;6.908;2022-12-24T02:00:20;20.70;;;5.07;;
23684;SDS011;12020;51.384;6.908;2022-12-24T02:02:49;20.15;;;5.30;;
23684;SDS011;12020;51.384;6.908;2022-12-24T02:07:55;21.00;;;5.10;;
23684;SDS011;12020;51.384;6.908;2022-12-24T02:10:23;21.67;;;5.38;;
23684;SDS011;12020;51.384;6.908;2022-12-24T02:12:49;22.60;;;5.93;;
23684;SDS011;12020;51.384;6.908;2022-12-24T02:15:17;21.58;;;5.10;;
23684;SDS011;12020;51.384;6.908;2022-12-24T02:32:14;20.52;;;6.05;;
23684;SDS011;12020;51.384;6.908;2022-12-24T02:35:04;19.42;;;4.70;;
23684;SDS011;12020;51.384;6.908;2022-12-24T02:37:37;19.55;;;4.88;;
23684;SDS011;12020;51.384;6.908;2022-12-24T02:40:09;19.38;;;5.03;;
23684;SDS011;12020;51.384;6.908;2022-12-24T02:42:43;23.17;;;5.15;;
23684;SDS011;12020;51.384;6.908;2022-12-24T02:45:14;20.10;;;5.38;;
23684;SDS011;12020;51.384;6.908;2022-12-24T02:50:15;20.67;;;4.75;;
23684;SDS011;12020;51.384;6.908;2022-12-24T02:52:45;19.65;;;5.28;;
23684;SDS011;12020;51.384;6.908;2022-12-24T03:00:20;20.42;;;4.88;;
23684;SDS011;12020;51.384;6.908;2022-12-24T03:11:26;21.42;;;5.22;;
23684;SDS011;12020;51.384;6.908;2022-12-24T03:13:54;19.85;;;4.70;;
23684;SDS011;12020;51.384;6.908;2022-12-24T03:16:24;22.35;;;5.28;;
23684;SDS011;12020;51.384;6.908;2022-12-24T03:18:53;20.63;;;4.70;;
23684;SDS011;12020;51.384;6.908;2022-12-24T03:21:24;21.25;;;5.22;;
23684;SDS011;12020;51.384;6.908;2022-12-24T03:23:54;17.67;;;4.05;;
23684;SDS011;12020;51.384;6.908;2022-12-24T03:26:20;21.90;;;4.43;;
23684;SDS011;12020;51.384;6.908;2022-12-24T03:28:55;21.25;;;4.63;;
23684;SDS011;12020;51.384;6.908;2022-12-24T03:31:21;22.40;;;4.90;;
23684;SDS011;12020;51.384;6.908;2022-12-24T03:33:48;21.55;;;4.80;;
23684;SDS011;12020;51.384;6.908;2022-12-24T03:36:15;18.63;;;4.53;;
23684;SDS011;12020;51.384;6.908;2022-12-24T03:38:44;21.85;;;4.93;;
23684;SDS011;12020;51.384;6.908;2022-12-24T03:41:09;22.13;;;4.22;;
23684;SDS011;12020;51.384;6.908;2022-12-24T03:43:37;20.98;;;4.30;;
23684;SDS011;12020;51.384;6.908;2022-12-24T03:46:04;20.80;;;4.68;;
23684;SDS011;12020;51.384;6.908;2022-12-24T03:48:52;23.02;;;4.97;;
23684;SDS011;12020;51.384;6.908;2022-12-24T03:51:19;18.42;;;4.50;;
23684;SDS011;12020;51.384;6.908;2022-12-24T03:53:50;18.67;;;4.80;;
23684;SDS011;12020;51.384;6.908;2022-12-24T03:56:17;20.40;;;4.40;;
23684;SDS011;12020;51.384;6.908;2022-12-24T03:58:43;17.42;;;4.47;;
23684;SDS011;12020;51.384;6.908;2022-12-24T04:01:09;18.13;;;4.25;;
23684;SDS011;12020;51.384;6.908;2022-12-24T04:03:35;18.30;;;4.38;;
23684;SDS011;12020;51.384;6.908;2022-12-24T04:06:07;17.92;;;4.57;;
23684;SDS011;12020;51.384;6.908;2022-12-24T04:08:34;20.92;;;4.55;;
23684;SDS011;12020;51.384;6.908;2022-12-24T04:11:03;18.20;;;4.87;;
23684;SDS011;12020;51.384;6.908;2022-12-24T04:13:36;17.25;;;4.28;;
23684;SDS011;12020;51.384;6.908;2022-12-24T04:16:04;15.38;;;3.97;;
23684;SDS011;12020;51.384;6.908;2022-12-24T04:18:31;17.60;;;3.90;;
23684;SDS011;12020;51.384;6.908;2022-12-24T04:20:57;15.68;;;4.07;;
23684;SDS011;12020;51.384;6.908;2022-12-24T04:23:28;14.30;;;3.97;;
23684;SDS011;12020;51.384;6.908;2022-12-24T04:25:58;13.38;;;3.40;;
23684;SDS011;12020;51.384;6.908;2022-12-24T04:28:27;15.57;;;4.00;;
23684;SDS011;12020;51.384;6.908;2022-12-24T04:30:58;13.93;;;3.60;;
23684;SDS011;12020;51.384;6.908;2022-12-24T04:33:26;13.52;;;3.47;;
23684;SDS011;12020;51.384;6.908;2022-12-24T04:35:57;13.57;;;3.53;;
23684;SDS011;12020;51.384;6.908;2022-12-24T04:38:25;16.33;;;3.87;;
23684;SDS011;12020;51.384;6.908;2022-12-24T04:40:58;14.68;;;3.40;;
23684;SDS011;12020;51.384;6.908;2022-12-24T04:43:23;13.32;;;3.38;;
23684;SDS011;12020;51.384;6.908;2022-12-24T04:45:50;14.18;;;3.35;;
23684;SDS011;12020;51.384;6.908;2022-12-24T04:48:17;13.40;;;3.22;;
23684;SDS011;12020;51.384;6.908;2022-12-24T04:50:43;14.70;;;3.53;;
23684;SDS011;12020;51.384;6.908;2022-12-24T04:53:10;12.98;;;3.47;;
23684;SDS011;12020;51.384;6.908;2022-12-24T04:55:43;13.60;;;3.60;;
23684;SDS011;12020;51.384;6.908;2022-12-24T04:58:10;15.43;;;3.95;;
23684;SDS011;12020;51.384;6.908;2022-12-24T05:00:38;9.55;;;2.80;;
23684;SDS011;12020;51.384;6.908;2022-12-24T05:03:05;12.23;;;2.90;;
23684;SDS011;12020;51.384;6.908;2022-12-24T05:05:32;11.00;;;3.20;;
23684;SDS011;12020;51.384;6.908;2022-12-24T05:07:58;11.98;;;3.38;;
23684;SDS011;12020;51.384;6.908;2022-12-24T05:10:23;11.70;;;3.50;;
23684;SDS011;12020;51.384;6.908;2022-12-24T05:12:50;9.50;;;3.28;;
23684;SDS011;12020;51.384;6.908;2022-12-24T05:15:17;13.77;;;3.38;;
23684;SDS011;12020;51.384;6.908;2022-12-24T05:17:43;14.10;;;3.67;;
23684;SDS011;12020;51.384;6.908;2022-12-24T05:20:09;14.30;;;3.50;;
23684;SDS011;12020;51.384;6.908;2022-12-24T05:22:36;15.07;;;3.77;;
23684;SDS011;12020;51.384;6.908;2022-12-24T05:25:20;15.85;;;3.50;;
23684;SDS011;12020;51.384;6.908;2022-12-24T05:28:04;10.45;;;3.30;;
23684;SDS011;12020;51.384;6.908;2022-12-24T05:30:30;15.50;;;3.73;;
23684;SDS011;12020;51.384;6.908;2022-12-24T05:32:58;13.90;;;3.70;;
23684;SDS011;12020;51.384;6.908;2022-12-24T05:35:25;12.17;;;3.50;;
23684;SDS011;12020;51.384;6.908;2022-12-24T05:37:56;15.50;;;4.10;;
23684;SDS011;12020;51.384;6.908;2022-12-24T05:40:23;14.77;;;3.80;;
23684;SDS011;12020;51.384;6.908;2022-12-24T05:42:49;18.67;;;4.25;;
23684;SDS011;12020;51.384;6.908;2022-12-24T05:45:15;14.33;;;3.77;;
23684;SDS011;12020;51.384;6.908;2022-12-24T05:47:41;14.77;;;3.90;;
23684;SDS011;12020;51.384;6.908;2022-12-24T05:50:08;13.57;;;3.67;;
23684;SDS011;12020;51.384;6.908;2022-12-24T05:52:34;17.77;;;4.10;;
23684;SDS011;12020;51.384;6.908;2022-12-24T05:55:01;14.80;;;3.97;;
23684;SDS011;12020;51.384;6.908;2022-12-24T05:57:27;12.50;;;3.58;;
23684;SDS011;12020;51.384;6.908;2022-12-24T05:59:53;12.75;;;3.83;;
23684;SDS011;12020;51.384;6.908;2022-12-24T06:02:20;15.27;;;4.00;;
23684;SDS011;12020;51.384;6.908;2022-12-24T06:04:47;15.73;;;3.95;;
23684;SDS011;12020;51.384;6.908;2022-12-24T06:07:14;14.02;;;3.65;;
23684;SDS011;12020;51.384;6.908;2022-12-24T06:09:41;14.07;;;3.80;;
23684;SDS011;12020;51.384;6.908;2022-12-24T06:12:09;17.52;;;4.57;;
23684;SDS011;12020;51.384;6.908;2022-12-24T06:14:36;15.20;;;3.90;;
23684;SDS011;12020;51.384;6.908;2022-12-24T06:17:04;15.30;;;3.85;;
23684;SDS011;12020;51.384;6.908;2022-12-24T06:19:29;10.80;;;3.55;;
23684;SDS011;12020;51.384;6.908;2022-12-24T06:21:56;10.87;;;3.33;;
23684;SDS011;12020;51.384;6.908;2022-12-24T06:24:22;14.13;;;3.80;;
23684;SDS011;12020;51.384;6.908;2022-12-24T06:26:47;16.25;;;4.05;;
23684;SDS011;12020;51.384;6.908;2022-12-24T06:29:13;13.45;;;3.65;;
23684;SDS011;12020;51.384;6.908;2022-12-24T06:31:39;13.77;;;3.63;;
23684;SDS011;12020;51.384;6.908;2022-12-24T06:34:04;13.38;;;3.92;;
23684;SDS011;12020;51.384;6.908;2022-12-24T06:36:30;15.73;;;3.67;;
23684;SDS011;12020;51.384;6.908;2022-12-24T06:38:56;16.10;;;3.70;;
23684;SDS011;12020;51.384;6.908;2022-12-24T06:41:21;15.63;;;4.25;;
23684;SDS011;12020;51.384;6.908;2022-12-24T06:43:49;14.70;;;4.53;;
23684;SDS011;12020;51.384;6.908;2022-12-24T06:46:16;13.70;;;4.07;;
23684;SDS011;12020;51.384;6.908;2022-12-24T06:48:42;13.15;;;4.03;;
23684;SDS011;12020;51.384;6.908;2022-12-24T06:51:09;15.07;;;4.20;;
23684;SDS011;12020;51.384;6.908;2022-12-24T06:53:35;17.83;;;4.15;;
23684;SDS011;12020;51.384;6.908;2022-12-24T06:56:02;17.65;;;4.78;;
23684;SDS011;12020;51.384;6.908;2022-12-24T06:58:29;17.33;;;4.15;;
23684;SDS011;12020;51.384;6.908;2022-12-24T07:00:55;15.73;;;4.45;;
23684;SDS011;12020;51.384;6.908;2022-12-24T07:03:21;14.05;;;3.90;;
23684;SDS011;12020;51.384;6.908;2022-12-24T07:05:47;16.50;;;4.55;;
23684;SDS011;12020;51.384;6.908;2022-12-24T07:08:12;16.83;;;4.10;;
23684;SDS011;12020;51.384;6.908;2022-12-24T07:10:38;17.20;;;4.32;;
23684;SDS011;12020;51.384;6.908;2022-12-24T07:13:04;16.23;;;4.10;;
23684;SDS011;12020;51.384;6.908;2022-12-24T07:15:29;16.40;;;4.47;;
23684;SDS011;12020;51.384;6.908;2022-12-24T07:17:55;16.70;;;4.77;;
23684;SDS011;12020;51.384;6.908;2022-12-24T07:20:20;14.53;;;4.70;;
23684;SDS011;12020;51.384;6.908;2022-12-24T07:22:46;19.67;;;5.03;;
23684;SDS011;12020;51.384;6.908;2022-12-24T07:25:12;17.03;;;4.33;;
23684;SDS011;12020;51.384;6.908;2022-12-24T07:27:39;21.40;;;5.15;;
23684;SDS011;12020;51.384;6.908;2022-12-24T07:30:05;18.90;;;5.22;;
23684;SDS011;12020;51.384;6.908;2022-12-24T07:32:31;17.63;;;4.50;;
23684;SDS011;12020;51.384;6.908;2022-12-24T07:34:57;17.53;;;4.80;;
23684;SDS011;12020;51.384;6.908;2022-12-24T07:37:23;22.13;;;5.90;;
23684;SDS011;12020;51.384;6.908;2022-12-24T07:39:48;19.35;;;4.70;;
23684;SDS011;12020;51.384;6.908;2022-12-24T07:42:14;17.60;;;5.13;;
23684;SDS011;12020;51.384;6.908;2022-12-24T07:44:40;22.07;;;5.03;;
23684;SDS011;12020;51.384;6.908;2022-12-24T07:47:05;19.53;;;4.90;;
23684;SDS011;12020;51.384;6.908;2022-12-24T07:49:31;18.50;;;4.90;;
23684;SDS011;12020;51.384;6.908;2022-12-24T07:51:56;17.10;;;4.43;;
23684;SDS011;12020;51.384;6.908;2022-12-24T07:54:22;21.05;;;4.90;;
23684;SDS011;12020;51.384;6.908;2022-12-24T07:56:48;20.05;;;5.22;;
23684;SDS011;12020;51.384;6.908;2022-12-24T07:59:15;19.42;;;4.95;;
23684;SDS011;12020;51.384;6.908;2022-12-24T08:01:41;18.42;;;4.80;;
23684;SDS011;12020;51.384;6.908;2022-12-24T08:04:07;22.40;;;5.03;;
23684;SDS011;12020;51.384;6.908;2022-12-24T08:06:32;18.73;;;4.68;;
23684;SDS011;12020;51.384;6.908;2022-12-24T08:08:58;18.70;;;4.70;;
23684;SDS011;12020;51.384;6.908;2022-12-24T08:11:24;19.27;;;5.30;;
23684;SDS011;12020;51.384;6.908;2022-12-24T08:13:49;20.97;;;4.87;;
23684;SDS011;12020;51.384;6.908;2022-12-24T08:16:15;19.37;;;4.63;;
23684;SDS011;12020;51.384;6.908;2022-12-24T08:18:42;17.37;;;4.43;;
23684;SDS011;12020;51.384;6.908;2022-12-24T08:21:07;19.00;;;4.93;;
23684;SDS011;12020;51.384;6.908;2022-12-24T08:23:34;21.63;;;5.32;;
23684;SDS011;12020;51.384;6.908;2022-12-24T08:26:00;22.00;;;5.18;;
23684;SDS011;12020;51.384;6.908;2022-12-24T08:28:26;20.13;;;4.97;;
23684;SDS011;12020;51.384;6.908;2022-12-24T08:30:52;20.15;;;4.65;;
23684;SDS011;12020;51.384;6.908;2022-12-24T08:33:18;20.77;;;5.03;;
23684;SDS011;12020;51.384;6.908;2022-12-24T08:35:51;18.57;;;4.83;;
23684;SDS011;12020;51.384;6.908;2022-12-24T08:38:18;19.77;;;5.30;;
23684;SDS011;12020;51.384;6.908;2022-12-24T08:40:44;21.67;;;5.05;;
23684;SDS011;12020;51.384;6.908;2022-12-24T08:43:12;18.77;;;5.03;;
23684;SDS011;12020;51.384;6.908;2022-12-24T08:45:38;19.40;;;5.10;;
23684;SDS011;12020;51.384;6.908;2022-12-24T08:48:05;20.10;;;5.10;;
23684;SDS011;12020;51.384;6.908;2022-12-24T08:50:31;19.30;;;4.90;;
23684;SDS011;12020;51.384;6.908;2022-12-24T08:52:57;18.80;;;5.22;;
23684;SDS011;12020;51.384;6.908;2022-12-24T08:55:24;20.70;;;4.88;;
23684;SDS011;12020;51.384;6.908;2022-12-24T08:57:50;19.67;;;4.70;;
23684;SDS011;12020;51.384;6.908;2022-12-24T09:00:15;21.55;;;5.07;;
23684;SDS011;12020;51.384;6.908;2022-12-24T09:02:41;20.65;;;4.95;;
23684;SDS011;12020;51.384;6.908;2022-12-24T09:05:07;20.60;;;5.43;;
23684;SDS011;12020;51.384;6.908;2022-12-24T09:07:33;20.93;;;5.20;;
23684;SDS011;12020;51.384;6.908;2022-12-24T09:09:59;21.67;;;5.20;;
23684;SDS011;12020;51.384;6.908;2022-12-24T09:12:25;17.95;;;4.90;;
23684;SDS011;12020;51.384;6.908;2022-12-24T09:14:50;19.40;;;4.90;;
23684;SDS011;12020;51.384;6.908;2022-12-24T09:17:19;21.40;;;5.40;;
23684;SDS011;12020;51.384;6.908;2022-12-24T09:19:45;21.38;;;5.45;;
23684;SDS011;12020;51.384;6.908;2022-12-24T09:22:12;24.00;;;5.53;;
23684;SDS011;12020;51.384;6.908;2022-12-24T09:24:38;21.08;;;5.78;;
23684;SDS011;12020;51.384;6.908;2022-12-24T09:27:03;22.38;;;5.22;;
23684;SDS011;12020;51.384;6.908;2022-12-24T09:29:30;23.08;;;4.90;;
23684;SDS011;12020;51.384;6.908;2022-12-24T09:31:55;20.42;;;5.40;;
23684;SDS011;12020;51.384;6.908;2022-12-24T09:34:22;23.95;;;5.50;;
23684;SDS011;12020;51.384;6.908;2022-12-24T09:36:48;20.67;;;5.35;;
23684;SDS011;12020;51.384;6.908;2022-12-24T09:39:14;18.58;;;5.32;;
23684;SDS011;12020;51.384;6.908;2022-12-24T09:44:35;18.75;;;4.95;;
23684;SDS011;12020;51.384;6.908;2022-12-24T09:47:10;21.00;;;5.28;;
23684;SDS011;12020;51.384;6.908;2022-12-24T09:49:46;20.88;;;4.78;;
23684;SDS011;12020;51.384;6.908;2022-12-24T09:52:20;21.80;;;4.82;;
23684;SDS011;12020;51.384;6.908;2022-12-24T09:54:59;21.23;;;5.13;;
23684;SDS011;12020;51.384;6.908;2022-12-24T09:57:42;21.45;;;4.68;;
23684;SDS011;12020;51.384;6.908;2022-12-24T10:02:57;18.52;;;5.10;;
23684;SDS011;12020;51.384;6.908;2022-12-24T10:05:42;20.00;;;5.40;;
23684;SDS011;12020;51.384;6.908;2022-12-24T10:10:50;20.88;;;5.57;;
23684;SDS011;12020;51.384;6.908;2022-12-24T10:13:28;19.05;;;5.15;;
23684;SDS011;12020;51.384;6.908;2022-12-24T10:16:22;19.65;;;5.30;;
23684;SDS011;12020;51.384;6.908;2022-12-24T10:19:17;17.80;;;5.33;;
23684;SDS011;12020;51.384;6.908;2022-12-24T10:24:33;19.35;;;5.32;;
23684;SDS011;12020;51.384;6.908;2022-12-24T10:27:38;22.50;;;5.63;;
23684;SDS011;12020;51.384;6.908;2022-12-24T10:30:14;21.25;;;5.35;;
23684;SDS011;12020;51.384;6.908;2022-12-24T10:32:43;24.05;;;5.65;;
23684;SDS011;12020;51.384;6.908;2022-12-24T10:37:44;20.98;;;5.78;;
23684;SDS011;12020;51.384;6.908;2022-12-24T10:42:56;22.38;;;5.57;;
23684;SDS011;12020;51.384;6.908;2022-12-24T10:45:22;23.90;;;5.80;;
23684;SDS011;12020;51.384;6.908;2022-12-24T10:47:54;24.65;;;5.47;;
23684;SDS011;12020;51.384;6.908;2022-12-24T10:50:33;22.27;;;5.40;;
23684;SDS011;12020;51.384;6.908;2022-12-24T10:53:21;17.15;;;5.05;;
23684;SDS011;12020;51.384;6.908;2022-12-24T10:55:49;24.88;;;6.05;;
23684;SDS011;12020;51.384;6.908;2022-12-24T10:58:24;19.65;;;5.50;;
23684;SDS011;12020;51.384;6.908;2022-12-24T11:00:51;21.70;;;5.50;;
23684;SDS011;12020;51.384;6.908;2022-12-24T11:03:21;23.83;;;5.50;;
23684;SDS011;12020;51.384;6.908;2022-12-24T11:06:25;24.38;;;5.63;;
23684;SDS011;12020;51.384;6.908;2022-12-24T11:08:46;25.35;;;5.65;;
23684;SDS011;12020;51.384;6.908;2022-12-24T11:11:16;24.73;;;5.90;;
23684;SDS011;12020;51.384;6.908;2022-12-24T11:18:48;21.60;;;6.10;;
23684;SDS011;12020;51.384;6.908;2022-12-24T11:23:53;24.52;;;5.60;;
23684;SDS011;12020;51.384;6.908;2022-12-24T11:26:33;25.20;;;6.03;;
23684;SDS011;12020;51.384;6.908;2022-12-24T11:29:03;22.08;;;5.78;;
23684;SDS011;12020;51.384;6.908;2022-12-24T11:32:09;23.42;;;5.63;;
23684;SDS011;12020;51.384;6.908;2022-12-24T11:34:44;23.05;;;5.03;;
23684;SDS011;12020;51.384;6.908;2022-12-24T11:37:20;18.85;;;5.00;;
23684;SDS011;12020;51.384;6.908;2022-12-24T11:39:49;22.80;;;5.20;;
23684;SDS011;12020;51.384;6.908;2022-12-24T11:42:27;24.37;;;5.63;;
23684;SDS011;12020;51.384;6.908;2022-12-24T11:45:05;21.48;;;5.43;;
23684;SDS011;12020;51.384;6.908;2022-12-24T11:47:47;22.23;;;5.43;;
23684;SDS011;12020;51.384;6.908;2022-12-24T11:50:24;23.27;;;6.07;;
23684;SDS011;12020;51.384;6.908;2022-12-24T11:58:52;19.40;;;5.00;;
23684;SDS011;12020;51.384;6.908;2022-12-24T12:03:58;26.00;;;5.67;;
23684;SDS011;12020;51.384;6.908;2022-12-24T12:09:06;20.88;;;4.80;;
23684;SDS011;12020;51.384;6.908;2022-12-24T12:11:43;19.15;;;5.40;;
23684;SDS011;12020;51.384;6.908;2022-12-24T12:14:17;22.13;;;5.95;;
23684;SDS011;12020;51.384;6.908;2022-12-24T12:17:01;18.67;;;5.00;;
23684;SDS011;12020;51.384;6.908;2022-12-24T12:19:38;20.13;;;4.90;;
23684;SDS011;12020;51.384;6.908;2022-12-24T12:22:17;21.70;;;5.67;;
23684;SDS011;12020;51.384;6.908;2022-12-24T12:24:57;20.63;;;5.20;;
23684;SDS011;12020;51.384;6.908;2022-12-24T12:27:34;24.38;;;5.43;;
23684;SDS011;12020;51.384;6.908;2022-12-24T12:30:09;17.45;;;5.05;;
23684;SDS011;12020;51.384;6.908;2022-12-24T12:33:09;20.27;;;5.53;;
23684;SDS011;12020;51.384;6.908;2022-12-24T12:35:49;17.77;;;5.22;;
23684;SDS011;12020;51.384;6.908;2022-12-24T12:38:23;18.75;;;5.13;;
23684;SDS011;12020;51.384;6.908;2022-12-24T12:41:01;20.05;;;5.28;;
23684;SDS011;12020;51.384;6.908;2022-12-24T12:43:54;18.95;;;5.13;;
23684;SDS011;12020;51.384;6.908;2022-12-24T12:51:52;18.85;;;4.93;;
23684;SDS011;12020;51.384;6.908;2022-12-24T12:54:40;18.02;;;4.85;;
23684;SDS011;12020;51.384;6.908;2022-12-24T12:57:22;13.77;;;4.67;;
23684;SDS011;12020;51.384;6.908;2022-12-24T12:59:54;17.92;;;4.80;;
23684;SDS011;12020;51.384;6.908;2022-12-24T13:18:56;17.38;;;4.53;;
23684;SDS011;12020;51.384;6.908;2022-12-24T13:21:43;17.48;;;4.93;;
23684;SDS011;12020;51.384;6.908;2022-12-24T13:24:29;16.83;;;4.80;;
23684;SDS011;12020;51.384;6.908;2022-12-24T13:34:55;15.10;;;4.80;;
23684;SDS011;12020;51.384;6.908;2022-12-24T13:37:41;17.60;;;4.70;;
23684;SDS011;12020;51.384;6.908;2022-12-24T13:40:22;16.77;;;4.10;;
23684;SDS011;12020;51.384;6.908;2022-12-24T13:47:57;16.80;;;4.07;;
23684;SDS011;12020;51.384;6.908;2022-12-24T13:50:35;13.93;;;3.90;;
23684;SDS011;12020;51.384;6.908;2022-12-24T13:56:08;14.90;;;3.57;;
23684;SDS011;12020;51.384;6.908;2022-12-24T13:58:48;15.23;;;4.43;;
23684;SDS011;12020;51.384;6.908;2022-12-24T14:01:21;18.40;;;4.10;;
23684;SDS011;12020;51.384;6.908;2022-12-24T14:03:58;13.47;;;3.67;;
23684;SDS011;12020;51.384;6.908;2022-12-24T14:06:27;18.83;;;4.47;;
23684;SDS011;12020;51.384;6.908;2022-12-24T14:09:07;14.83;;;4.70;;
23684;SDS011;12020;51.384;6.908;2022-12-24T14:14:32;14.93;;;4.50;;
23684;SDS011;12020;51.384;6.908;2022-12-24T14:17:00;17.33;;;4.20;;
23684;SDS011;12020;51.384;6.908;2022-12-24T14:19:58;12.60;;;3.60;;
23684;SDS011;12020;51.384;6.908;2022-12-24T14:22:30;15.20;;;3.60;;
23684;SDS011;12020;51.384;6.908;2022-12-24T14:25:01;13.47;;;3.47;;
23684;SDS011;12020;51.384;6.908;2022-12-24T14:27:48;15.97;;;3.70;;
23684;SDS011;12020;51.384;6.908;2022-12-24T14:30:18;14.03;;;3.30;;
23684;SDS011;12020;51.384;6.908;2022-12-24T14:32:44;13.87;;;3.37;;
23684;SDS011;12020;51.384;6.908;2022-12-24T14:37:40;14.43;;;3.47;;
23684;SDS011;12020;51.384;6.908;2022-12-24T14:40:20;13.03;;;3.27;;
23684;SDS011;12020;51.384;6.908;2022-12-24T14:45:29;16.40;;;3.20;;
23684;SDS011;12020;51.384;6.908;2022-12-24T14:48:16;13.97;;;3.63;;
23684;SDS011;12020;51.384;6.908;2022-12-24T14:53:27;12.67;;;3.63;;
23684;SDS011;12020;51.384;6.908;2022-12-24T14:56:14;12.50;;;3.30;;
23684;SDS011;12020;51.384;6.908;2022-12-24T14:58:41;15.37;;;4.03;;
23684;SDS011;12020;51.384;6.908;2022-12-24T15:01:27;15.47;;;3.30;;
23684;SDS011;12020;51.384;6.908;2022-12-24T15:06:39;12.47;;;3.73;;
23684;SDS011;12020;51.384;6.908;2022-12-24T15:09:11;13.57;;;4.20;;
23684;SDS011;12020;51.384;6.908;2022-12-24T15:12:01;19.07;;;3.93;;
23684;SDS011;12020;51.384;6.908;2022-12-24T15:14:29;16.90;;;3.90;;
23684;SDS011;12020;51.384;6.908;2022-12-24T15:17:03;11.83;;;3.63;;
23684;SDS011;12020;51.384;6.908;2022-12-24T15:19:32;12.47;;;3.77;;
23684;SDS011;12020;51.384;6.908;2022-12-24T15:22:01;13.57;;;3.47;;
23684;SDS011;12020;51.384;6.908;2022-12-24T15:24:32;19.30;;;3.77;;
23684;SDS011;12020;51.384;6.908;2022-12-24T15:26:59;15.60;;;4.10;;
23684;SDS011;12020;51.384;6.908;2022-12-24T15:29:30;16.63;;;4.40;;
23684;SDS011;12020;51.384;6.908;2022-12-24T15:31:59;12.63;;;4.00;;
23684;SDS011;12020;51.384;6.908;2022-12-24T15:34:42;12.80;;;3.87;;
23684;SDS011;12020;51.384;6.908;2022-12-24T15:37:27;13.57;;;3.73;;
23684;SDS011;12020;51.384;6.908;2022-12-24T15:42:33;12.73;;;3.47;;
23684;SDS011;12020;51.384;6.908;2022-12-24T15:45:04;18.37;;;3.87;;
23684;SDS011;12020;51.384;6.908;2022-12-24T15:47:58;16.27;;;4.17;;
23684;SDS011;12020;51.384;6.908;2022-12-24T15:50:32;13.87;;;3.80;;
23684;SDS011;12020;51.384;6.908;2022-12-24T15:53:06;13.90;;;3.53;;
23684;SDS011;12020;51.384;6.908;2022-12-24T15:55:39;15.80;;;4.80;;
23684;SDS011;12020;51.384;6.908;2022-12-24T15:58:17;13.77;;;3.77;;
23684;SDS011;12020;51.384;6.908;2022-12-24T16:03:28;13.82;;;4.88;;
23684;SDS011;12020;51.384;6.908;2022-12-24T16:06:04;17.15;;;5.00;;
23684;SDS011;12020;51.384;6.908;2022-12-24T16:08:35;17.70;;;5.13;;
23684;SDS011;12020;51.384;6.908;2022-12-24T16:11:12;18.20;;;5.00;;
23684;SDS011;12020;51.384;6.908;2022-12-24T16:16:33;14.80;;;4.38;;
23684;SDS011;12020;51.384;6.908;2022-12-24T16:22:31;20.42;;;4.85;;
23684;SDS011;12020;51.384;6.908;2022-12-24T16:25:14;16.47;;;4.20;;
23684;SDS011;12020;51.384;6.908;2022-12-24T16:27:50;18.88;;;4.50;;
23684;SDS011;12020;51.384;6.908;2022-12-24T16:30:22;19.00;;;5.18;;
23684;SDS011;12020;51.384;6.908;2022-12-24T16:35:24;16.23;;;4.70;;
23684;SDS011;12020;51.384;6.908;2022-12-24T16:37:52;15.70;;;4.43;;
23684;SDS011;12020;51.384;6.908;2022-12-24T16:42:49;14.48;;;4.45;;
23684;SDS011;12020;51.384;6.908;2022-12-24T16:45:34;14.55;;;4.90;;
23684;SDS011;12020;51.384;6.908;2022-12-24T16:48:04;14.15;;;4.57;;
23684;SDS011;12020;51.384;6.908;2022-12-24T16:50:32;22.30;;;5.57;;
23684;SDS011;12020;51.384;6.908;2022-12-24T16:53:00;15.40;;;5.07;;
23684;SDS011;12020;51.384;6.908;2022-12-24T16:55:27;14.98;;;4.63;;
23684;SDS011;12020;51.384;6.908;2022-12-24T16:57:53;17.95;;;5.00;;
23684;SDS011;12020;51.384;6.908;2022-12-24T17:00:20;18.97;;;5.80;;
23684;SDS011;12020;51.384;6.908;2022-12-24T17:02:48;19.58;;;5.60;;
23684;SDS011;12020;51.384;6.908;2022-12-24T17:05:14;15.57;;;5.20;;
23684;SDS011;12020;51.384;6.908;2022-12-24T17:07:57;17.73;;;5.18;;
23684;SDS011;12020;51.384;6.908;2022-12-24T17:10:26;14.32;;;4.53;;
23684;SDS011;12020;51.384;6.908;2022-12-24T17:15:23;20.13;;;5.90;;
23684;SDS011;12020;51.384;6.908;2022-12-24T17:17:48;14.60;;;4.80;;
23684;SDS011;12020;51.384;6.908;2022-12-24T17:20:14;17.80;;;5.67;;